sensor_id;sensor_type;location;lat;lon;timestamp;temperature;humidity
1063;DHT22;520;50.932;6.962;2023-05-29T00:00:17;20.20;64.50
1063;DHT22;520;50.932;6.962;2023-05-29T00:02:53;20.20;64.50
1063;DHT22;520;50.932;6.962;2023-05-29T00:05:30;20.20;64.20
1063;DHT22;520;50.932;6.962;2023-05-29T00:08:19;20.20;63.80
1063;DHT22;520;50.932;6.962;2023-05-29T00:11:00;20.00;64.70
1063;DHT22;520;50.932;6.962;2023-05-29T00:13:32;20.00;65.40
1063;DHT22;520;50.932;6.962;2023-05-29T00:16:02;20.00;65.50
1063;DHT22;520;50.932;6.962;2023-05-29T00:18:38;20.10;65.00
1063;DHT22;520;50.932;6.962;2023-05-29T00:21:21;20.20;64.70
1063;DHT22;520;50.932;6.962;2023-05-29T00:23:51;20.00;64.50
1063;DHT22;520;50.932;6.962;2023-05-29T00:26:33;19.90;65.20
1063;DHT22;520;50.932;6.962;2023-05-29T00:29:07;20.00;64.70
1063;DHT22;520;50.932;6.962;2023-05-29T00:31:46;20.10;64.50
1063;DHT22;520;50.932;6.962;2023-05-29T00:34:19;19.90;64.80
1063;DHT22;520;50.932;6.962;2023-05-29T00:36:54;19.90;65.00
1063;DHT22;520;50.932;6.962;2023-05-29T00:39:26;20.00;64.50
1063;DHT22;520;50.932;6.962;2023-05-29T00:42:06;19.90;64.50
1063;DHT22;520;50.932;6.962;2023-05-29T00:44:37;19.70;64.90
1063;DHT22;520;50.932;6.962;2023-05-29T00:47:09;19.70;65.30
1063;DHT22;520;50.932;6.962;2023-05-29T00:49:44;19.50;65.70
1063;DHT22;520;50.932;6.962;2023-05-29T00:52:17;19.40;66.40
1063;DHT22;520;50.932;6.962;2023-05-29T00:54:52;19.40;67.00
1063;DHT22;520;50.932;6.962;2023-05-29T00:57:33;19.60;66.80
1063;DHT22;520;50.932;6.962;2023-05-29T01:00:05;19.50;66.00
1063;DHT22;520;50.932;6.962;2023-05-29T01:02:41;19.50;66.40
1063;DHT22;520;50.932;6.962;2023-05-29T01:05:18;19.40;66.10
1063;DHT22;520;50.932;6.962;2023-05-29T01:07:49;19.30;66.70
1063;DHT22;520;50.932;6.962;2023-05-29T01:10:29;19.50;66.80
1063;DHT22;520;50.932;6.962;2023-05-29T01:13:12;19.50;66.30
1063;DHT22;520;50.932;6.962;2023-05-29T01:15:58;19.50;66.70
1063;DHT22;520;50.932;6.962;2023-05-29T01:21:36;19.30;66.50
1063;DHT22;520;50.932;6.962;2023-05-29T01:25:11;19.20;66.70
1063;DHT22;520;50.932;6.962;2023-05-29T01:27:55;19.10;67.40
1063;DHT22;520;50.932;6.962;2023-05-29T01:30:41;19.00;68.00
1063;DHT22;520;50.932;6.962;2023-05-29T01:33:25;18.90;67.70
1063;DHT22;520;50.932;6.962;2023-05-29T01:35:58;18.80;68.30
1063;DHT22;520;50.932;6.962;2023-05-29T01:38:47;18.90;68.70
1063;DHT22;520;50.932;6.962;2023-05-29T01:41:30;18.90;68.40
1063;DHT22;520;50.932;6.962;2023-05-29T01:44:06;18.90;68.30
1063;DHT22;520;50.932;6.962;2023-05-29T01:46:50;18.80;68.30
1063;DHT22;520;50.932;6.962;2023-05-29T01:49:24;18.60;69.00
1063;DHT22;520;50.932;6.962;2023-05-29T01:51:54;18.70;69.20
1063;DHT22;520;50.932;6.962;2023-05-29T01:54:25;18.60;68.60
1063;DHT22;520;50.932;6.962;2023-05-29T01:57:00;18.50;68.90
1063;DHT22;520;50.932;6.962;2023-05-29T01:59:33;18.50;69.40
1063;DHT22;520;50.932;6.962;2023-05-29T02:02:11;18.50;69.80
1063;DHT22;520;50.932;6.962;2023-05-29T02:04:44;18.40;70.40
1063;DHT22;520;50.932;6.962;2023-05-29T02:07:16;18.40;70.50
1063;DHT22;520;50.932;6.962;2023-05-29T02:09:49;18.60;69.80
1063;DHT22;520;50.932;6.962;2023-05-29T02:12:19;18.60;69.20
1063;DHT22;520;50.932;6.962;2023-05-29T02:14:54;18.40;68.90
1063;DHT22;520;50.932;6.962;2023-05-29T02:17:38;18.20;69.30
1063;DHT22;520;50.932;6.962;2023-05-29T02:20:09;18.20;69.30
1063;DHT22;520;50.932;6.962;2023-05-29T02:22:39;18.30;68.70
1063;DHT22;520;50.932;6.962;2023-05-29T02:25:18;18.20;68.30
1063;DHT22;520;50.932;6.962;2023-05-29T02:27:54;18.10;68.50
1063;DHT22;520;50.932;6.962;2023-05-29T02:30:35;17.90;69.10
1063;DHT22;520;50.932;6.962;2023-05-29T02:33:12;18.00;69.10
1063;DHT22;520;50.932;6.962;2023-05-29T02:35:51;17.90;69.10
1063;DHT22;520;50.932;6.962;2023-05-29T02:38:20;17.70;69.90
1063;DHT22;520;50.932;6.962;2023-05-29T02:40:57;17.60;70.10
1063;DHT22;520;50.932;6.962;2023-05-29T02:43:46;17.60;70.50
1063;DHT22;520;50.932;6.962;2023-05-29T02:46:16;17.60;70.90
1063;DHT22;520;50.932;6.962;2023-05-29T02:48:58;17.60;71.20
1063;DHT22;520;50.932;6.962;2023-05-29T02:51:30;17.60;71.60
1063;DHT22;520;50.932;6.962;2023-05-29T02:54:06;17.40;72.00
1063;DHT22;520;50.932;6.962;2023-05-29T02:56:39;17.40;72.20
1063;DHT22;520;50.932;6.962;2023-05-29T02:59:17;17.30;72.50
1063;DHT22;520;50.932;6.962;2023-05-29T03:02:39;17.20;72.60
1063;DHT22;520;50.932;6.962;2023-05-29T03:08:51;17.30;71.90
1063;DHT22;520;50.932;6.962;2023-05-29T03:11:23;17.20;72.70
1063;DHT22;520;50.932;6.962;2023-05-29T03:13:59;17.00;73.60
1063;DHT22;520;50.932;6.962;2023-05-29T03:16:35;17.00;74.20
1063;DHT22;520;50.932;6.962;2023-05-29T03:19:07;16.90;74.70
1063;DHT22;520;50.932;6.962;2023-05-29T03:21:40;17.10;74.70
1063;DHT22;520;50.932;6.962;2023-05-29T03:24:12;16.90;74.60
1063;DHT22;520;50.932;6.962;2023-05-29T03:26:50;17.00;74.60
1063;DHT22;520;50.932;6.962;2023-05-29T03:29:27;16.90;74.80
1063;DHT22;520;50.932;6.962;2023-05-29T03:31:56;16.80;75.30
1063;DHT22;520;50.932;6.962;2023-05-29T03:34:31;16.90;76.00
1063;DHT22;520;50.932;6.962;2023-05-29T03:37:04;16.80;76.20
1063;DHT22;520;50.932;6.962;2023-05-29T03:39:48;16.70;76.40
1063;DHT22;520;50.932;6.962;2023-05-29T03:42:27;16.80;76.80
1063;DHT22;520;50.932;6.962;2023-05-29T03:45:02;16.70;77.00
1063;DHT22;520;50.932;6.962;2023-05-29T03:47:32;16.60;77.70
1063;DHT22;520;50.932;6.962;2023-05-29T03:50:11;16.50;79.00
1063;DHT22;520;50.932;6.962;2023-05-29T03:52:46;16.40;79.60
1063;DHT22;520;50.932;6.962;2023-05-29T03:55:20;16.40;80.70
1063;DHT22;520;50.932;6.962;2023-05-29T03:58:01;16.30;80.30
1063;DHT22;520;50.932;6.962;2023-05-29T04:00:32;16.20;80.50
1063;DHT22;520;50.932;6.962;2023-05-29T04:03:04;16.40;80.80
1063;DHT22;520;50.932;6.962;2023-05-29T04:05:38;16.40;81.70
1063;DHT22;520;50.932;6.962;2023-05-29T04:08:12;16.50;81.10
1063;DHT22;520;50.932;6.962;2023-05-29T04:11:08;16.40;80.60
1063;DHT22;520;50.932;6.962;2023-05-29T04:13:42;16.20;81.60
1063;DHT22;520;50.932;6.962;2023-05-29T04:16:24;16.20;82.70
1063;DHT22;520;50.932;6.962;2023-05-29T04:18:56;16.20;82.50
1063;DHT22;520;50.932;6.962;2023-05-29T04:21:32;16.20;82.50
1063;DHT22;520;50.932;6.962;2023-05-29T04:24:11;16.20;82.70
1063;DHT22;520;50.932;6.962;2023-05-29T04:26:52;16.30;81.80
1063;DHT22;520;50.932;6.962;2023-05-29T04:29:32;16.20;81.80
1063;DHT22;520;50.932;6.962;2023-05-29T04:32:09;16.30;81.50
1063;DHT22;520;50.932;6.962;2023-05-29T04:34:43;16.40;81.10
1063;DHT22;520;50.932;6.962;2023-05-29T04:37:13;16.20;81.50
1063;DHT22;520;50.932;6.962;2023-05-29T04:39:43;16.10;82.30
1063;DHT22;520;50.932;6.962;2023-05-29T04:42:16;16.10;82.60
1063;DHT22;520;50.932;6.962;2023-05-29T04:44:51;16.30;82.20
1063;DHT22;520;50.932;6.962;2023-05-29T04:47:42;16.20;81.80
1063;DHT22;520;50.932;6.962;2023-05-29T04:50:26;16.20;83.20
1063;DHT22;520;50.932;6.962;2023-05-29T04:53:05;16.30;81.90
1063;DHT22;520;50.932;6.962;2023-05-29T04:55:46;16.30;81.20
1063;DHT22;520;50.932;6.962;2023-05-29T04:58:18;16.60;80.60
1063;DHT22;520;50.932;6.962;2023-05-29T05:00:48;16.50;80.20
1063;DHT22;520;50.932;6.962;2023-05-29T05:03:23;16.50;80.60
1063;DHT22;520;50.932;6.962;2023-05-29T05:06:09;16.50;80.80
1063;DHT22;520;50.932;6.962;2023-05-29T05:11:44;16.50;81.10
1063;DHT22;520;50.932;6.962;2023-05-29T05:14:29;16.40;81.60
1063;DHT22;520;50.932;6.962;2023-05-29T05:17:04;16.40;82.10
1063;DHT22;520;50.932;6.962;2023-05-29T05:19:52;16.40;82.30
1063;DHT22;520;50.932;6.962;2023-05-29T05:22:28;16.50;82.50
1063;DHT22;520;50.932;6.962;2023-05-29T05:24:58;16.60;82.10
1063;DHT22;520;50.932;6.962;2023-05-29T05:27:36;16.60;82.20
1063;DHT22;520;50.932;6.962;2023-05-29T05:30:10;16.90;81.70
1063;DHT22;520;50.932;6.962;2023-05-29T05:32:44;16.80;81.10
1063;DHT22;520;50.932;6.962;2023-05-29T05:35:31;16.80;81.90
1063;DHT22;520;50.932;6.962;2023-05-29T05:38:17;16.60;82.20
1063;DHT22;520;50.932;6.962;2023-05-29T05:41:06;16.60;82.80
1063;DHT22;520;50.932;6.962;2023-05-29T05:43:42;16.90;82.80
1063;DHT22;520;50.932;6.962;2023-05-29T05:46:13;16.80;82.00
1063;DHT22;520;50.932;6.962;2023-05-29T05:48:53;16.70;82.70
1063;DHT22;520;50.932;6.962;2023-05-29T05:51:31;16.90;82.90
1063;DHT22;520;50.932;6.962;2023-05-29T05:54:05;17.20;80.50
1063;DHT22;520;50.932;6.962;2023-05-29T05:56:38;17.00;80.50
1063;DHT22;520;50.932;6.962;2023-05-29T05:59:22;16.80;80.80
1063;DHT22;520;50.932;6.962;2023-05-29T06:02:19;16.70;81.10
1063;DHT22;520;50.932;6.962;2023-05-29T06:05:01;17.10;81.20
1063;DHT22;520;50.932;6.962;2023-05-29T06:07:35;17.00;81.20
1063;DHT22;520;50.932;6.962;2023-05-29T06:10:09;17.30;81.20
1063;DHT22;520;50.932;6.962;2023-05-29T06:12:39;17.40;79.10
1063;DHT22;520;50.932;6.962;2023-05-29T06:15:08;17.70;78.10
1063;DHT22;520;50.932;6.962;2023-05-29T06:17:47;17.60;77.00
1063;DHT22;520;50.932;6.962;2023-05-29T06:20:18;17.30;77.60
1063;DHT22;520;50.932;6.962;2023-05-29T06:22:54;17.10;79.20
1063;DHT22;520;50.932;6.962;2023-05-29T06:25:34;17.10;80.10
1063;DHT22;520;50.932;6.962;2023-05-29T06:28:20;17.10;80.70
1063;DHT22;520;50.932;6.962;2023-05-29T06:30:54;17.40;79.90
1063;DHT22;520;50.932;6.962;2023-05-29T06:33:51;17.70;78.00
1063;DHT22;520;50.932;6.962;2023-05-29T06:36:50;17.80;77.70
1063;DHT22;520;50.932;6.962;2023-05-29T06:39:24;17.80;77.30
1063;DHT22;520;50.932;6.962;2023-05-29T06:41:58;17.80;76.10
1063;DHT22;520;50.932;6.962;2023-05-29T06:44:45;17.70;76.30
1063;DHT22;520;50.932;6.962;2023-05-29T06:47:38;17.60;77.30
1063;DHT22;520;50.932;6.962;2023-05-29T06:50:17;17.40;78.00
1063;DHT22;520;50.932;6.962;2023-05-29T06:52:52;17.60;77.90
1063;DHT22;520;50.932;6.962;2023-05-29T06:55:25;17.70;77.30
1063;DHT22;520;50.932;6.962;2023-05-29T06:58:01;17.80;75.80
1063;DHT22;520;50.932;6.962;2023-05-29T07:00:30;17.90;75.40
1063;DHT22;520;50.932;6.962;2023-05-29T07:02:57;17.90;75.80
1063;DHT22;520;50.932;6.962;2023-05-29T07:05:36;18.10;75.20
1063;DHT22;520;50.932;6.962;2023-05-29T07:08:15;18.00;75.30
1063;DHT22;520;50.932;6.962;2023-05-29T07:10:47;18.10;75.70
1063;DHT22;520;50.932;6.962;2023-05-29T07:13:25;18.30;74.70
1063;DHT22;520;50.932;6.962;2023-05-29T07:16:19;18.40;74.10
1063;DHT22;520;50.932;6.962;2023-05-29T07:19:24;18.40;74.10
1063;DHT22;520;50.932;6.962;2023-05-29T07:22:51;18.50;72.60
1063;DHT22;520;50.932;6.962;2023-05-29T07:26:15;18.50;73.50
1063;DHT22;520;50.932;6.962;2023-05-29T07:40:24;18.70;72.00
1063;DHT22;520;50.932;6.962;2023-05-29T07:43:32;18.60;72.40
1063;DHT22;520;50.932;6.962;2023-05-29T07:47:01;19.00;71.80
1063;DHT22;520;50.932;6.962;2023-05-29T07:53:55;19.40;70.10
1063;DHT22;520;50.932;6.962;2023-05-29T07:57:24;19.10;70.20
1063;DHT22;520;50.932;6.962;2023-05-29T08:00:37;19.30;70.60
1063;DHT22;520;50.932;6.962;2023-05-29T08:10:49;19.90;68.00
1063;DHT22;520;50.932;6.962;2023-05-29T08:13:50;19.80;67.30
1063;DHT22;520;50.932;6.962;2023-05-29T08:16:19;19.60;68.40
1063;DHT22;520;50.932;6.962;2023-05-29T08:18:46;20.20;67.20
1063;DHT22;520;50.932;6.962;2023-05-29T08:21:16;20.50;66.20
1063;DHT22;520;50.932;6.962;2023-05-29T08:23:48;20.70;65.30
1063;DHT22;520;50.932;6.962;2023-05-29T08:26:49;20.70;64.50
1063;DHT22;520;50.932;6.962;2023-05-29T08:29:53;20.70;64.30
1063;DHT22;520;50.932;6.962;2023-05-29T08:36:42;21.70;61.10
1063;DHT22;520;50.932;6.962;2023-05-29T08:40:00;22.60;59.60
1063;DHT22;520;50.932;6.962;2023-05-29T08:54:00;24.60;54.60
1063;DHT22;520;50.932;6.962;2023-05-29T09:01:05;25.60;51.30
1063;DHT22;520;50.932;6.962;2023-05-29T09:11:48;25.90;50.20
1063;DHT22;520;50.932;6.962;2023-05-29T09:14:50;26.90;48.10
1063;DHT22;520;50.932;6.962;2023-05-29T09:21:27;28.40;46.10
1063;DHT22;520;50.932;6.962;2023-05-29T09:30:51;27.90;44.70
1063;DHT22;520;50.932;6.962;2023-05-29T09:34:16;28.20;45.20
1063;DHT22;520;50.932;6.962;2023-05-29T09:45:37;29.60;43.20
1063;DHT22;520;50.932;6.962;2023-05-29T09:48:52;29.60;41.90
1063;DHT22;520;50.932;6.962;2023-05-29T09:52:33;28.90;43.10
1063;DHT22;520;50.932;6.962;2023-05-29T10:01:51;29.50;42.90
1063;DHT22;520;50.932;6.962;2023-05-29T10:05:07;30.20;41.50
1063;DHT22;520;50.932;6.962;2023-05-29T10:08:20;29.50;41.80
1063;DHT22;520;50.932;6.962;2023-05-29T10:14:42;29.20;42.30
1063;DHT22;520;50.932;6.962;2023-05-29T10:20:56;30.20;41.70
1063;DHT22;520;50.932;6.962;2023-05-29T10:24:30;29.30;42.30
1063;DHT22;520;50.932;6.962;2023-05-29T10:28:08;28.90;42.80
1063;DHT22;520;50.932;6.962;2023-05-29T10:31:20;29.70;41.70
1063;DHT22;520;50.932;6.962;2023-05-29T10:49:29;28.70;44.00
1063;DHT22;520;50.932;6.962;2023-05-29T10:52:42;27.90;44.60
1063;DHT22;520;50.932;6.962;2023-05-29T10:55:53;29.20;43.30
1063;DHT22;520;50.932;6.962;2023-05-29T10:59:44;27.90;44.00
1063;DHT22;520;50.932;6.962;2023-05-29T11:06:41;28.40;44.10
1063;DHT22;520;50.932;6.962;2023-05-29T11:09:33;28.60;43.50
1063;DHT22;520;50.932;6.962;2023-05-29T11:12:28;28.60;43.70
1063;DHT22;520;50.932;6.962;2023-05-29T11:18:22;28.60;43.70
1063;DHT22;520;50.932;6.962;2023-05-29T11:22:29;28.10;44.40
1063;DHT22;520;50.932;6.962;2023-05-29T11:26:10;28.60;43.60
1063;DHT22;520;50.932;6.962;2023-05-29T11:29:39;27.70;45.00
1063;DHT22;520;50.932;6.962;2023-05-29T12:00:14;28.00;45.50
1063;DHT22;520;50.932;6.962;2023-05-29T12:03:48;29.40;43.00
1063;DHT22;520;50.932;6.962;2023-05-29T12:07:27;28.70;43.60
1063;DHT22;520;50.932;6.962;2023-05-29T12:10:42;29.00;44.30
1063;DHT22;520;50.932;6.962;2023-05-29T12:17:02;28.60;44.00
1063;DHT22;520;50.932;6.962;2023-05-29T12:20:07;28.40;44.30
1063;DHT22;520;50.932;6.962;2023-05-29T12:23:34;28.60;44.50
1063;DHT22;520;50.932;6.962;2023-05-29T12:32:34;28.90;42.80
1063;DHT22;520;50.932;6.962;2023-05-29T12:35:33;28.80;43.30
1063;DHT22;520;50.932;6.962;2023-05-29T12:38:51;28.80;43.40
1063;DHT22;520;50.932;6.962;2023-05-29T12:42:04;28.50;43.60
1063;DHT22;520;50.932;6.962;2023-05-29T12:45:27;28.70;43.40
1063;DHT22;520;50.932;6.962;2023-05-29T12:52:04;29.00;42.50
1063;DHT22;520;50.932;6.962;2023-05-29T13:06:18;27.70;44.00
1063;DHT22;520;50.932;6.962;2023-05-29T13:20:47;27.90;44.20
1063;DHT22;520;50.932;6.962;2023-05-29T13:24:01;27.60;44.20
1063;DHT22;520;50.932;6.962;2023-05-29T13:27:12;27.60;45.40
1063;DHT22;520;50.932;6.962;2023-05-29T13:31:08;27.30;45.00
1063;DHT22;520;50.932;6.962;2023-05-29T13:34:42;27.40;45.10
1063;DHT22;520;50.932;6.962;2023-05-29T13:38:08;27.90;43.80
1063;DHT22;520;50.932;6.962;2023-05-29T13:40:40;27.90;43.50
1063;DHT22;520;50.932;6.962;2023-05-29T13:43:32;27.50;43.80
1063;DHT22;520;50.932;6.962;2023-05-29T13:46:27;27.10;44.20
1063;DHT22;520;50.932;6.962;2023-05-29T13:49:28;27.00;44.70
1063;DHT22;520;50.932;6.962;2023-05-29T13:52:25;26.90;44.60
1063;DHT22;520;50.932;6.962;2023-05-29T13:58:35;26.50;45.50
1063;DHT22;520;50.932;6.962;2023-05-29T14:05:21;26.70;45.40
1063;DHT22;520;50.932;6.962;2023-05-29T14:08:23;26.50;45.10
1063;DHT22;520;50.932;6.962;2023-05-29T14:22:55;26.30;46.40
1063;DHT22;520;50.932;6.962;2023-05-29T14:25:58;26.20;46.80
1063;DHT22;520;50.932;6.962;2023-05-29T14:31:55;26.30;46.00
1063;DHT22;520;50.932;6.962;2023-05-29T14:41:25;26.00;47.00
1063;DHT22;520;50.932;6.962;2023-05-29T14:48:08;26.00;46.70
1063;DHT22;520;50.932;6.962;2023-05-29T14:51:01;25.90;47.20
1063;DHT22;520;50.932;6.962;2023-05-29T14:53:53;25.70;47.10
1063;DHT22;520;50.932;6.962;2023-05-29T14:56:46;25.50;47.50
1063;DHT22;520;50.932;6.962;2023-05-29T14:59:38;25.50;47.30
1063;DHT22;520;50.932;6.962;2023-05-29T15:02:17;25.40;47.60
1063;DHT22;520;50.932;6.962;2023-05-29T15:05:19;25.40;48.20
1063;DHT22;520;50.932;6.962;2023-05-29T15:15:06;25.50;47.70
1063;DHT22;520;50.932;6.962;2023-05-29T15:25:43;25.40;47.90
1063;DHT22;520;50.932;6.962;2023-05-29T15:29:03;25.40;47.40
1063;DHT22;520;50.932;6.962;2023-05-29T15:48:15;25.10;47.50
1063;DHT22;520;50.932;6.962;2023-05-29T15:51:28;24.70;47.90
1063;DHT22;520;50.932;6.962;2023-05-29T15:55:04;24.50;48.10
1063;DHT22;520;50.932;6.962;2023-05-29T16:05:33;24.50;48.40
1063;DHT22;520;50.932;6.962;2023-05-29T16:08:31;24.50;48.20
1063;DHT22;520;50.932;6.962;2023-05-29T16:12:17;24.60;48.40
1063;DHT22;520;50.932;6.962;2023-05-29T16:15:09;24.60;48.60
1063;DHT22;520;50.932;6.962;2023-05-29T16:17:48;24.50;49.40
1063;DHT22;520;50.932;6.962;2023-05-29T16:20:51;24.40;49.70
1063;DHT22;520;50.932;6.962;2023-05-29T16:23:35;24.20;49.70
1063;DHT22;520;50.932;6.962;2023-05-29T16:30:18;24.30;49.40
1063;DHT22;520;50.932;6.962;2023-05-29T16:33:09;24.20;49.10
1063;DHT22;520;50.932;6.962;2023-05-29T16:36:06;24.20;49.60
1063;DHT22;520;50.932;6.962;2023-05-29T16:38:44;24.20;49.10
1063;DHT22;520;50.932;6.962;2023-05-29T16:42:03;24.20;49.10
1063;DHT22;520;50.932;6.962;2023-05-29T16:45:03;24.10;49.20
1063;DHT22;520;50.932;6.962;2023-05-29T16:47:45;24.30;48.70
1063;DHT22;520;50.932;6.962;2023-05-29T16:50:49;24.40;48.40
1063;DHT22;520;50.932;6.962;2023-05-29T16:57:39;24.20;48.60
1063;DHT22;520;50.932;6.962;2023-05-29T17:00:28;24.20;48.60
1063;DHT22;520;50.932;6.962;2023-05-29T17:03:33;24.00;48.50
1063;DHT22;520;50.932;6.962;2023-05-29T17:10:27;24.30;48.80
1063;DHT22;520;50.932;6.962;2023-05-29T17:13:17;24.30;48.30
1063;DHT22;520;50.932;6.962;2023-05-29T17:16:22;24.30;48.30
1063;DHT22;520;50.932;6.962;2023-05-29T17:19:06;24.00;48.30
1063;DHT22;520;50.932;6.962;2023-05-29T17:21:57;24.00;48.80
1063;DHT22;520;50.932;6.962;2023-05-29T17:25:15;23.90;48.80
1063;DHT22;520;50.932;6.962;2023-05-29T17:28:09;23.90;48.30
1063;DHT22;520;50.932;6.962;2023-05-29T17:31:23;23.90;47.90
1063;DHT22;520;50.932;6.962;2023-05-29T17:34:33;24.00;48.00
1063;DHT22;520;50.932;6.962;2023-05-29T17:37:54;23.90;48.70
1063;DHT22;520;50.932;6.962;2023-05-29T17:40:52;23.80;48.10
1063;DHT22;520;50.932;6.962;2023-05-29T17:47:19;23.70;48.40
1063;DHT22;520;50.932;6.962;2023-05-29T17:50:31;23.60;49.00
1063;DHT22;520;50.932;6.962;2023-05-29T18:00:02;23.40;48.00
1063;DHT22;520;50.932;6.962;2023-05-29T18:03:22;23.30;48.10
1063;DHT22;520;50.932;6.962;2023-05-29T18:06:37;23.30;48.80
1063;DHT22;520;50.932;6.962;2023-05-29T18:09:27;23.10;49.10
1063;DHT22;520;50.932;6.962;2023-05-29T18:15:15;23.20;48.30
1063;DHT22;520;50.932;6.962;2023-05-29T18:18:12;23.00;48.50
1063;DHT22;520;50.932;6.962;2023-05-29T18:21:17;22.80;49.20
1063;DHT22;520;50.932;6.962;2023-05-29T18:27:15;22.60;48.90
1063;DHT22;520;50.932;6.962;2023-05-29T18:30:03;22.70;49.10
1063;DHT22;520;50.932;6.962;2023-05-29T18:32:55;22.60;49.20
1063;DHT22;520;50.932;6.962;2023-05-29T18:36:07;22.60;49.30
1063;DHT22;520;50.932;6.962;2023-05-29T18:39:11;22.40;49.30
1063;DHT22;520;50.932;6.962;2023-05-29T18:42:11;22.50;49.40
1063;DHT22;520;50.932;6.962;2023-05-29T18:44:59;22.60;49.30
1063;DHT22;520;50.932;6.962;2023-05-29T19:28:41;21.70;48.30
1063;DHT22;520;50.932;6.962;2023-05-29T19:38:47;21.40;49.30
1063;DHT22;520;50.932;6.962;2023-05-29T19:48:47;21.10;48.30
1063;DHT22;520;50.932;6.962;2023-05-29T19:51:49;21.10;48.40
1063;DHT22;520;50.932;6.962;2023-05-29T19:55:36;21.20;48.00
1063;DHT22;520;50.932;6.962;2023-05-29T19:58:56;21.20;47.50
1063;DHT22;520;50.932;6.962;2023-05-29T20:02:19;21.10;47.70
1063;DHT22;520;50.932;6.962;2023-05-29T20:05:16;20.90;48.00
1063;DHT22;520;50.932;6.962;2023-05-29T20:08:45;21.00;47.20
1063;DHT22;520;50.932;6.962;2023-05-29T20:12:04;21.00;47.30
1063;DHT22;520;50.932;6.962;2023-05-29T20:22:31;20.90;47.30
1063;DHT22;520;50.932;6.962;2023-05-29T20:26:01;20.90;47.20
1063;DHT22;520;50.932;6.962;2023-05-29T20:41:05;20.70;47.00
1063;DHT22;520;50.932;6.962;2023-05-29T20:44:11;20.80;46.30
1063;DHT22;520;50.932;6.962;2023-05-29T20:47:25;20.60;46.70
1063;DHT22;520;50.932;6.962;2023-05-29T20:57:50;20.50;47.30
1063;DHT22;520;50.932;6.962;2023-05-29T21:04:34;20.60;47.20
1063;DHT22;520;50.932;6.962;2023-05-29T21:11:41;20.40;47.40
1063;DHT22;520;50.932;6.962;2023-05-29T21:18:30;20.50;46.90
1063;DHT22;520;50.932;6.962;2023-05-29T21:21:51;20.30;47.00
1063;DHT22;520;50.932;6.962;2023-05-29T21:24:58;20.10;47.70
1063;DHT22;520;50.932;6.962;2023-05-29T21:27:53;20.10;47.40
1063;DHT22;520;50.932;6.962;2023-05-29T21:30:48;20.10;46.60
1063;DHT22;520;50.932;6.962;2023-05-29T21:36:47;19.90;46.70
1063;DHT22;520;50.932;6.962;2023-05-29T21:39:54;19.80;46.00
1063;DHT22;520;50.932;6.962;2023-05-29T21:47:15;19.70;45.40
1063;DHT22;520;50.932;6.962;2023-05-29T21:50:40;19.50;46.10
1063;DHT22;520;50.932;6.962;2023-05-29T22:00:43;19.30;47.20
1063;DHT22;520;50.932;6.962;2023-05-29T22:04:04;19.40;46.80
1063;DHT22;520;50.932;6.962;2023-05-29T22:07:19;19.30;47.00
1063;DHT22;520;50.932;6.962;2023-05-29T22:10:54;19.30;47.00
1063;DHT22;520;50.932;6.962;2023-05-29T22:13:43;19.10;46.10
1063;DHT22;520;50.932;6.962;2023-05-29T22:17:05;19.10;45.80
1063;DHT22;520;50.932;6.962;2023-05-29T22:20:16;19.10;46.10
1063;DHT22;520;50.932;6.962;2023-05-29T22:23:50;19.20;45.90
1063;DHT22;520;50.932;6.962;2023-05-29T22:29:39;19.00;46.00
1063;DHT22;520;50.932;6.962;2023-05-29T22:40:04;19.00;44.90
1063;DHT22;520;50.932;6.962;2023-05-29T22:43:25;18.70;46.00
1063;DHT22;520;50.932;6.962;2023-05-29T22:46:46;18.60;46.60
1063;DHT22;520;50.932;6.962;2023-05-29T22:53:18;18.50;46.10
1063;DHT22;520;50.932;6.962;2023-05-29T23:04:45;18.40;46.00
1063;DHT22;520;50.932;6.962;2023-05-29T23:07:44;18.40;46.00
1063;DHT22;520;50.932;6.962;2023-05-29T23:14:16;18.20;45.70
1063;DHT22;520;50.932;6.962;2023-05-29T23:19:47;18.20;45.80
1063;DHT22;520;50.932;6.962;2023-05-29T23:23:26;18.10;45.50
1063;DHT22;520;50.932;6.962;2023-05-29T23:30:04;18.10;45.90
1063;DHT22;520;50.932;6.962;2023-05-29T23:33:41;17.90;45.60
1063;DHT22;520;50.932;6.962;2023-05-29T23:40:56;17.70;45.20
1063;DHT22;520;50.932;6.962;2023-05-29T23:43:41;17.70;45.30
1063;DHT22;520;50.932;6.962;2023-05-29T23:47:17;17.70;46.10
1063;DHT22;520;50.932;6.962;2023-05-29T23:51:12;17.70;45.80
1063;DHT22;520;50.932;6.962;2023-05-29T23:57:35;17.80;45.90
